Date,TemperatureHighF,TemperatureAvgF,TemperatureLowF,DewpointHighF,DewpointAvgF,DewpointLowF,HumidityHigh,HumidityAvg,HumidityLow,PressureMaxIn,PressureMinIn,WindSpeedMaxMPH,WindSpeedAvgMPH,GustSpeedMaxMPH,PrecipitationSumIn
2013-1-1,17.3,10.8,5.4,9.6,4.6,2.0,86,76,63,30.38,30.27,5,2,11,0.00
2013-1-2,32.1,19.8,6.4,21.4,12.1,1.5,84,72,54,30.34,30.19,5,2,12,0.00
2013-1-3,26.4,22.5,12.8,23.6,18.9,8.9,90,86,81,30.40,30.20,6,4,12,0.00
2013-1-4,31.6,21.8,10.9,23.6,16.9,7.4,89,81,69,30.37,30.26,9,5,21,0.00
2013-1-5,35.1,29.3,18.9,33.2,26.6,17.3,96,90,76,30.35,30.02,7,4,18,0.06
2013-1-6,34.7,24.1,16.4,32.2,20.2,14.5,92,85,78,30.43,30.01,7,3,17,0.00
2013-1-7,41.4,28.7,14.9,28.1,21.9,13.0,93,77,51,30.42,30.19,10,4,22,0.00
2013-1-8,41.1,34.8,26.3,32.4,29.1,23.8,90,80,70,30.24,30.09,7,3,19,0.00
2013-1-9,42.2,36.0,27.9,32.6,28.4,24.3,86,74,55,30.58,30.08,11,5,25,0.00
2013-1-10,43.9,31.0,24.2,38.4,25.7,22.0,97,81,49,30.59,29.96,10,3,20,0.63
2013-1-11,50.2,46.1,40.0,47.8,45.0,39.2,98,96,89,29.95,29.73,7,4,19,0.32
2013-1-12,52.1,37.2,23.5,47.2,32.2,20.7,91,82,74,30.10,29.74,10,5,24,0.00
2013-1-13,23.6,18.3,11.1,21.1,13.1,5.7,92,80,72,30.36,29.99,8,4,17,0.00
2013-1-14,24.5,14.8,8.0,11.6,8.2,4.9,89,76,54,30.59,30.37,4,1,11,0.00
2013-1-15,29.5,18.8,9.3,15.9,12.4,7.4,92,77,53,30.57,30.25,3,1,8,0.00
2013-1-16,34.9,26.1,15.3,30.8,19.9,10.2,91,78,59,30.24,29.94,9,4,21,0.00
2013-1-17,33.6,24.0,18.7,30.5,13.4,6.8,90,64,47,30.52,30.18,8,3,17,0.00
2013-1-18,43.2,31.8,17.0,32.6,24.9,14.1,89,76,65,30.54,29.98,13,5,29,0.00
2013-1-19,46.5,39.2,20.0,36.9,30.7,8.3,80,71,53,30.06,29.80,14,6,36,0.00
2013-1-20,19.2,13.2,8.9,7.3,3.0,0.5,70,63,51,30.43,30.07,9,4,29,0.00
2013-1-21,10.9,5.7,1.3,4.1,-4.2,-7.9,76,64,50,30.43,30.28,8,5,21,0.00
2013-1-22,10.3,3.7,-3.7,-2.0,-5.6,-9.4,79,65,52,30.54,30.43,7,3,16,0.00
2013-1-23,19.6,13.7,8.6,15.8,5.8,-2.4,86,70,60,30.52,30.25,12,4,27,0.00
2013-1-24,19.3,11.4,2.3,8.1,0.6,-5.0,72,62,45,30.79,30.49,8,3,18,0.00
2013-1-25,29.8,21.4,16.4,19.0,14.2,5.6,89,74,57,30.49,30.07,8,4,22,0.00
2013-1-26,27.8,18.4,7.6,15.0,9.1,4.3,87,68,47,30.53,30.32,4,2,10,0.00
2013-1-27,35.6,28.7,23.6,34.8,24.1,14.6,97,83,68,30.47,29.97,8,5,20,0.03
2013-1-28,46.5,40.2,35.7,46.0,38.4,34.9,98,93,80,30.03,29.85,8,4,16,0.20
2013-1-29,61.1,52.1,37.0,58.5,50.9,36.0,98,96,82,29.86,29.50,9,3,20,0.84
2013-1-30,36.6,29.6,17.3,35.6,28.0,13.3,97,94,84,29.75,29.34,9,4,20,0.33
2013-1-31,16.7,9.8,0.6,12.7,4.6,-3.9,90,79,71,30.32,29.75,8,6,22,0.00